<?xml version="1.0" encoding="UTF-8" standalone="no" ?>
<gpx xmlns="http://www.topografix.com/GPX/1/1" xmlns:xsi="http://www.w3.org/2001/XMLSchema-instance" xsi:schemaLocation="http://www.topografix.com/GPX/1/1 http://www.topografix.com/GPX/1/1/gpx.xsd" version="1.1" creator="VisuGPX - https://www.visugpx.com">
  <metadata>
    <name>Vacances 2021</name>
  </metadata>
  <trk>
    <name><![CDATA[Journal actif: 2021-07-23 11:31]]></name>
    <trkseg>
      <trkpt lat="49.2134" lon="5.63486">
        <ele>208.74</ele>
        <time>2021-07-23T13:31:39Z</time>
      </trkpt>
      <trkpt lat="49.21322" lon="5.6339">
        <ele>207.3</ele>
        <time>2021-07-23T13:31:51Z</time>
      </trkpt>
      <trkpt lat="49.2131" lon="5.63323">
        <ele>206.34</ele>
        <time>2021-07-23T13:31:57Z</time>
      </trkpt>
      <trkpt lat="49.2131" lon="5.63298">
        <ele>205.86</ele>
        <time>2021-07-23T13:31:58Z</time>
      </trkpt>
      <trkpt lat="49.21313" lon="5.63286">
        <ele>205.38</ele>
        <time>2021-07-23T13:31:59Z</time>
      </trkpt>
      <trkpt lat="49.21313" lon="5.63286">
        <ele>205.38</ele>
        <time>2021-07-23T13:32:00Z</time>
      </trkpt>
      <trkpt lat="49.21316" lon="5.63275">
        <ele>205.38</ele>
        <time>2021-07-23T13:32:01Z</time>
      </trkpt>
      <trkpt lat="49.21322" lon="5.63256">
        <ele>205.38</ele>
        <time>2021-07-23T13:32:02Z</time>
      </trkpt>
      <trkpt lat="49.21322" lon="5.63256">
        <ele>205.38</ele>
        <time>2021-07-23T13:32:03Z</time>
      </trkpt>
      <trkpt lat="49.21326" lon="5.63247">
        <ele>205.38</ele>
        <time>2021-07-23T13:32:04Z</time>
      </trkpt>
      <trkpt lat="49.21355" lon="5.63165">
        <ele>204.9</ele>
        <time>2021-07-23T13:32:14Z</time>
      </trkpt>
      <trkpt lat="49.21357" lon="5.63154">
        <ele>204.42</ele>
        <time>2021-07-23T13:32:15Z</time>
      </trkpt>
      <trkpt lat="49.21357" lon="5.63154">
        <ele>204.42</ele>
        <time>2021-07-23T13:32:16Z</time>
      </trkpt>
      <trkpt lat="49.21358" lon="5.63144">
        <ele>204.42</ele>
        <time>2021-07-23T13:32:17Z</time>
      </trkpt>
      <trkpt lat="49.21357" lon="5.63132">
        <ele>204.42</ele>
        <time>2021-07-23T13:32:18Z</time>
      </trkpt>
      <trkpt lat="49.21355" lon="5.63106">
        <ele>204.42</ele>
        <time>2021-07-23T13:32:19Z</time>
      </trkpt>
      <trkpt lat="49.21335" lon="5.6287">
        <ele>205.38</ele>
        <time>2021-07-23T13:32:39Z</time>
      </trkpt>
      <trkpt lat="49.2131" lon="5.62598">
        <ele>205.38</ele>
        <time>2021-07-23T13:33:00Z</time>
      </trkpt>
      <trkpt lat="49.21282" lon="5.62313">
        <ele>206.82</ele>
        <time>2021-07-23T13:33:21Z</time>
      </trkpt>
      <trkpt lat="49.21255" lon="5.62032">
        <ele>209.7</ele>
        <time>2021-07-23T13:33:37Z</time>
      </trkpt>
      <trkpt lat="49.2123" lon="5.61746">
        <ele>205.86</ele>
        <time>2021-07-23T13:33:51Z</time>
      </trkpt>
      <trkpt lat="49.21197" lon="5.61408">
        <ele>204.42</ele>
        <time>2021-07-23T13:34:04Z</time>
      </trkpt>
      <trkpt lat="49.21146" lon="5.60863">
        <ele>216.43</ele>
        <time>2021-07-23T13:34:23Z</time>
      </trkpt>
      <trkpt lat="49.21089" lon="5.60257">
        <ele>214.03</ele>
        <time>2021-07-23T13:34:44Z</time>
      </trkpt>
      <trkpt lat="49.2102" lon="5.5951">
        <ele>213.55</ele>
        <time>2021-07-23T13:35:09Z</time>
      </trkpt>
      <trkpt lat="49.20952" lon="5.58846">
        <ele>215.95</ele>
        <time>2021-07-23T13:35:31Z</time>
      </trkpt>
      <trkpt lat="49.20878" lon="5.58539">
        <ele>214.03</ele>
        <time>2021-07-23T13:35:42Z</time>
      </trkpt>
      <trkpt lat="49.20735" lon="5.57979">
        <ele>213.07</ele>
        <time>2021-07-23T13:36:02Z</time>
      </trkpt>
      <trkpt lat="49.20584" lon="5.57395">
        <ele>214.51</ele>
        <time>2021-07-23T13:36:22Z</time>
      </trkpt>
      <trkpt lat="49.20444" lon="5.56843">
        <ele>224.12</ele>
        <time>2021-07-23T13:36:43Z</time>
      </trkpt>
      <trkpt lat="49.20341" lon="5.56439">
        <ele>227.01</ele>
        <time>2021-07-23T13:36:58Z</time>
      </trkpt>
      <trkpt lat="49.20258" lon="5.56115">
        <ele>225.57</ele>
        <time>2021-07-23T13:37:13Z</time>
      </trkpt>
      <trkpt lat="49.20112" lon="5.55546">
        <ele>228.93</ele>
        <time>2021-07-23T13:37:36Z</time>
      </trkpt>
      <trkpt lat="49.19994" lon="5.55087">
        <ele>230.85</ele>
        <time>2021-07-23T13:37:53Z</time>
      </trkpt>
      <trkpt lat="49.19853" lon="5.54532">
        <ele>236.14</ele>
        <time>2021-07-23T13:38:13Z</time>
      </trkpt>
      <trkpt lat="49.19769" lon="5.54197">
        <ele>238.54</ele>
        <time>2021-07-23T13:38:27Z</time>
      </trkpt>
      <trkpt lat="49.19741" lon="5.5401">
        <ele>233.74</ele>
        <time>2021-07-23T13:38:35Z</time>
      </trkpt>
      <trkpt lat="49.19723" lon="5.53654">
        <ele>235.18</ele>
        <time>2021-07-23T13:38:50Z</time>
      </trkpt>
      <trkpt lat="49.19718" lon="5.53633">
        <ele>235.18</ele>
        <time>2021-07-23T13:38:51Z</time>
      </trkpt>
      <trkpt lat="49.19713" lon="5.53611">
        <ele>235.18</ele>
        <time>2021-07-23T13:38:52Z</time>
      </trkpt>
      <trkpt lat="49.19618" lon="5.53311">
        <ele>229.89</ele>
        <time>2021-07-23T13:39:05Z</time>
      </trkpt>
      <trkpt lat="49.1944" lon="5.52767">
        <ele>232.78</ele>
        <time>2021-07-23T13:39:27Z</time>
      </trkpt>
      <trkpt lat="49.19321" lon="5.52403">
        <ele>232.3</ele>
        <time>2021-07-23T13:39:41Z</time>
      </trkpt>
      <trkpt lat="49.19197" lon="5.52024">
        <ele>236.14</ele>
        <time>2021-07-23T13:39:56Z</time>
      </trkpt>
      <trkpt lat="49.19119" lon="5.51783">
        <ele>238.54</ele>
        <time>2021-07-23T13:40:08Z</time>
      </trkpt>
      <trkpt lat="49.18997" lon="5.51416">
        <ele>239.99</ele>
        <time>2021-07-23T13:40:26Z</time>
      </trkpt>
      <trkpt lat="49.18898" lon="5.51178">
        <ele>249.6</ele>
        <time>2021-07-23T13:40:39Z</time>
      </trkpt>
      <trkpt lat="49.18787" lon="5.51053">
        <ele>257.29</ele>
        <time>2021-07-23T13:40:48Z</time>
      </trkpt>
      <trkpt lat="49.18618" lon="5.50843">
        <ele>255.85</ele>
        <time>2021-07-23T13:41:03Z</time>
      </trkpt>
      <trkpt lat="49.18564" lon="5.50698">
        <ele>252.96</ele>
        <time>2021-07-23T13:41:11Z</time>
      </trkpt>
      <trkpt lat="49.18523" lon="5.50437">
        <ele>252.96</ele>
        <time>2021-07-23T13:41:25Z</time>
      </trkpt>
      <trkpt lat="49.18517" lon="5.50363">
        <ele>252.96</ele>
        <time>2021-07-23T13:41:30Z</time>
      </trkpt>
      <trkpt lat="49.18517" lon="5.50363">
        <ele>252.96</ele>
        <time>2021-07-23T13:41:31Z</time>
      </trkpt>
      <trkpt lat="49.18519" lon="5.50344">
        <ele>252.96</ele>
        <time>2021-07-23T13:41:32Z</time>
      </trkpt>
      <trkpt lat="49.18523" lon="5.50336">
        <ele>252.96</ele>
        <time>2021-07-23T13:41:33Z</time>
      </trkpt>
      <trkpt lat="49.18523" lon="5.50336">
        <ele>252.48</ele>
        <time>2021-07-23T13:41:34Z</time>
      </trkpt>
      <trkpt lat="49.18524" lon="5.5032">
        <ele>252</ele>
        <time>2021-07-23T13:41:35Z</time>
      </trkpt>
      <trkpt lat="49.1852" lon="5.5031">
        <ele>252</ele>
        <time>2021-07-23T13:41:36Z</time>
      </trkpt>
      <trkpt lat="49.18516" lon="5.50302">
        <ele>252</ele>
        <time>2021-07-23T13:41:37Z</time>
      </trkpt>
      <trkpt lat="49.18512" lon="5.50294">
        <ele>252</ele>
        <time>2021-07-23T13:41:38Z</time>
      </trkpt>
      <trkpt lat="49.18507" lon="5.50285">
        <ele>252.48</ele>
        <time>2021-07-23T13:41:39Z</time>
      </trkpt>
      <trkpt lat="49.18501" lon="5.50275">
        <ele>252.48</ele>
        <time>2021-07-23T13:41:40Z</time>
      </trkpt>
      <trkpt lat="49.18495" lon="5.50264">
        <ele>253.44</ele>
        <time>2021-07-23T13:41:41Z</time>
      </trkpt>
      <trkpt lat="49.18493" lon="5.5025">
        <ele>253.44</ele>
        <time>2021-07-23T13:41:42Z</time>
      </trkpt>
      <trkpt lat="49.18468" lon="5.50076">
        <ele>260.17</ele>
        <time>2021-07-23T13:41:51Z</time>
      </trkpt>
      <trkpt lat="49.18417" lon="5.49785">
        <ele>271.71</ele>
        <time>2021-07-23T13:42:06Z</time>
      </trkpt>
      <trkpt lat="49.18331" lon="5.49369">
        <ele>283.25</ele>
        <time>2021-07-23T13:42:24Z</time>
      </trkpt>
      <trkpt lat="49.18253" lon="5.49116">
        <ele>295.74</ele>
        <time>2021-07-23T13:42:35Z</time>
      </trkpt>
      <trkpt lat="49.18131" lon="5.48758">
        <ele>311.6</ele>
        <time>2021-07-23T13:42:52Z</time>
      </trkpt>
      <trkpt lat="49.17965" lon="5.48245">
        <ele>320.74</ele>
        <time>2021-07-23T13:43:13Z</time>
      </trkpt>
      <trkpt lat="49.1791" lon="5.47994">
        <ele>320.74</ele>
        <time>2021-07-23T13:43:23Z</time>
      </trkpt>
      <trkpt lat="49.17879" lon="5.47844">
        <ele>322.18</ele>
        <time>2021-07-23T13:43:31Z</time>
      </trkpt>
      <trkpt lat="49.17842" lon="5.47663">
        <ele>322.18</ele>
        <time>2021-07-23T13:43:40Z</time>
      </trkpt>
      <trkpt lat="49.1778" lon="5.47359">
        <ele>324.58</ele>
        <time>2021-07-23T13:43:52Z</time>
      </trkpt>
      <trkpt lat="49.17663" lon="5.46803">
        <ele>329.39</ele>
        <time>2021-07-23T13:44:13Z</time>
      </trkpt>
      <trkpt lat="49.17579" lon="5.46453">
        <ele>336.6</ele>
        <time>2021-07-23T13:44:26Z</time>
      </trkpt>
      <trkpt lat="49.17485" lon="5.46295">
        <ele>343.81</ele>
        <time>2021-07-23T13:44:34Z</time>
      </trkpt>
      <trkpt lat="49.17265" lon="5.45965">
        <ele>356.31</ele>
        <time>2021-07-23T13:44:52Z</time>
      </trkpt>
      <trkpt lat="49.17057" lon="5.45647">
        <ele>358.71</ele>
        <time>2021-07-23T13:45:07Z</time>
      </trkpt>
      <trkpt lat="49.16949" lon="5.4548">
        <ele>359.67</ele>
        <time>2021-07-23T13:45:17Z</time>
      </trkpt>
      <trkpt lat="49.16843" lon="5.4532">
        <ele>348.13</ele>
        <time>2021-07-23T13:45:28Z</time>
      </trkpt>
      <trkpt lat="49.16838" lon="5.45311">
        <ele>347.65</ele>
        <time>2021-07-23T13:45:29Z</time>
      </trkpt>
      <trkpt lat="49.16835" lon="5.45307">
        <ele>347.17</ele>
        <time>2021-07-23T13:45:30Z</time>
      </trkpt>
      <trkpt lat="49.1684" lon="5.45291">
        <ele>346.69</ele>
        <time>2021-07-23T13:45:31Z</time>
      </trkpt>
      <trkpt lat="49.16845" lon="5.45284">
        <ele>346.21</ele>
        <time>2021-07-23T13:45:32Z</time>
      </trkpt>
      <trkpt lat="49.1685" lon="5.45277">
        <ele>346.21</ele>
        <time>2021-07-23T13:45:33Z</time>
      </trkpt>
      <trkpt lat="49.16855" lon="5.45268">
        <ele>345.73</ele>
        <time>2021-07-23T13:45:34Z</time>
      </trkpt>
      <trkpt lat="49.16867" lon="5.45249">
        <ele>345.73</ele>
        <time>2021-07-23T13:45:36Z</time>
      </trkpt>
      <trkpt lat="49.16873" lon="5.4524">
        <ele>345.73</ele>
        <time>2021-07-23T13:45:37Z</time>
      </trkpt>
      <trkpt lat="49.16879" lon="5.4523">
        <ele>344.77</ele>
        <time>2021-07-23T13:45:38Z</time>
      </trkpt>
      <trkpt lat="49.16887" lon="5.45223">
        <ele>343.81</ele>
        <time>2021-07-23T13:45:39Z</time>
      </trkpt>
      <trkpt lat="49.16896" lon="5.45217">
        <ele>342.85</ele>
        <time>2021-07-23T13:45:40Z</time>
      </trkpt>
      <trkpt lat="49.16936" lon="5.45192">
        <ele>340.92</ele>
        <time>2021-07-23T13:45:44Z</time>
      </trkpt>
      <trkpt lat="49.16948" lon="5.45187">
        <ele>339.96</ele>
        <time>2021-07-23T13:45:45Z</time>
      </trkpt>
      <trkpt lat="49.16961" lon="5.45184">
        <ele>339.48</ele>
        <time>2021-07-23T13:45:46Z</time>
      </trkpt>
      <trkpt lat="49.16973" lon="5.45185">
        <ele>338.52</ele>
        <time>2021-07-23T13:45:47Z</time>
      </trkpt>
      <trkpt lat="49.16987" lon="5.45191">
        <ele>337.56</ele>
        <time>2021-07-23T13:45:48Z</time>
      </trkpt>
      <trkpt lat="49.16999" lon="5.45198">
        <ele>336.6</ele>
        <time>2021-07-23T13:45:49Z</time>
      </trkpt>
      <trkpt lat="49.17012" lon="5.45206">
        <ele>336.12</ele>
        <time>2021-07-23T13:45:50Z</time>
      </trkpt>
      <trkpt lat="49.17114" lon="5.45315">
        <ele>329.87</ele>
        <time>2021-07-23T13:45:59Z</time>
      </trkpt>
      <trkpt lat="49.17225" lon="5.45423">
        <ele>318.81</ele>
        <time>2021-07-23T13:46:09Z</time>
      </trkpt>
      <trkpt lat="49.17239" lon="5.45429">
        <ele>317.85</ele>
        <time>2021-07-23T13:46:10Z</time>
      </trkpt>
      <trkpt lat="49.17252" lon="5.45433">
        <ele>316.89</ele>
        <time>2021-07-23T13:46:11Z</time>
      </trkpt>
      <trkpt lat="49.17265" lon="5.45435">
        <ele>315.93</ele>
        <time>2021-07-23T13:46:12Z</time>
      </trkpt>
      <trkpt lat="49.17285" lon="5.45423">
        <ele>314.97</ele>
        <time>2021-07-23T13:46:13Z</time>
      </trkpt>
      <trkpt lat="49.17285" lon="5.45423">
        <ele>314.49</ele>
        <time>2021-07-23T13:46:14Z</time>
      </trkpt>
      <trkpt lat="49.17295" lon="5.45412">
        <ele>314.97</ele>
        <time>2021-07-23T13:46:15Z</time>
      </trkpt>
      <trkpt lat="49.17305" lon="5.45401">
        <ele>314.01</ele>
        <time>2021-07-23T13:46:16Z</time>
      </trkpt>
      <trkpt lat="49.17323" lon="5.45379">
        <ele>312.09</ele>
        <time>2021-07-23T13:46:18Z</time>
      </trkpt>
      <trkpt lat="49.17331" lon="5.4537">
        <ele>311.6</ele>
        <time>2021-07-23T13:46:19Z</time>
      </trkpt>
      <trkpt lat="49.17341" lon="5.45358">
        <ele>311.6</ele>
        <time>2021-07-23T13:46:20Z</time>
      </trkpt>
      <trkpt lat="49.17353" lon="5.45351">
        <ele>312.09</ele>
        <time>2021-07-23T13:46:21Z</time>
      </trkpt>
      <trkpt lat="49.17364" lon="5.45346">
        <ele>312.57</ele>
        <time>2021-07-23T13:46:22Z</time>
      </trkpt>
      <trkpt lat="49.17376" lon="5.45342">
        <ele>313.05</ele>
        <time>2021-07-23T13:46:23Z</time>
      </trkpt>
      <trkpt lat="49.17388" lon="5.45339">
        <ele>313.53</ele>
        <time>2021-07-23T13:46:24Z</time>
      </trkpt>
      <trkpt lat="49.17399" lon="5.45342">
        <ele>314.01</ele>
        <time>2021-07-23T13:46:25Z</time>
      </trkpt>
      <trkpt lat="49.17411" lon="5.45344">
        <ele>314.01</ele>
        <time>2021-07-23T13:46:26Z</time>
      </trkpt>
      <trkpt lat="49.17423" lon="5.45347">
        <ele>314.01</ele>
        <time>2021-07-23T13:46:27Z</time>
      </trkpt>
      <trkpt lat="49.17557" lon="5.45395">
        <ele>315.93</ele>
        <time>2021-07-23T13:46:38Z</time>
      </trkpt>
      <trkpt lat="49.17659" lon="5.4547">
        <ele>317.85</ele>
        <time>2021-07-23T13:46:47Z</time>
      </trkpt>
      <trkpt lat="49.177" lon="5.45514">
        <ele>317.37</ele>
        <time>2021-07-23T13:46:51Z</time>
      </trkpt>
      <trkpt lat="49.17711" lon="5.45525">
        <ele>317.85</ele>
        <time>2021-07-23T13:46:52Z</time>
      </trkpt>
      <trkpt lat="49.17722" lon="5.45533">
        <ele>317.85</ele>
        <time>2021-07-23T13:46:53Z</time>
      </trkpt>
      <trkpt lat="49.17853" lon="5.45586">
        <ele>321.22</ele>
        <time>2021-07-23T13:47:02Z</time>
      </trkpt>
      <trkpt lat="49.18037" lon="5.45652">
        <ele>326.02</ele>
        <time>2021-07-23T13:47:15Z</time>
      </trkpt>
      <trkpt lat="49.18126" lon="5.45675">
        <ele>330.35</ele>
        <time>2021-07-23T13:47:25Z</time>
      </trkpt>
      <trkpt lat="49.18218" lon="5.45685">
        <ele>331.31</ele>
        <time>2021-07-23T13:47:34Z</time>
      </trkpt>
      <trkpt lat="49.18247" lon="5.45682">
        <ele>330.35</ele>
        <time>2021-07-23T13:47:39Z</time>
      </trkpt>
      <trkpt lat="49.18254" lon="5.45681">
        <ele>330.35</ele>
        <time>2021-07-23T13:47:40Z</time>
      </trkpt>
      <trkpt lat="49.1826" lon="5.45678">
        <ele>330.35</ele>
        <time>2021-07-23T13:47:41Z</time>
      </trkpt>
      <trkpt lat="49.18267" lon="5.45672">
        <ele>329.87</ele>
        <time>2021-07-23T13:47:42Z</time>
      </trkpt>
      <trkpt lat="49.18273" lon="5.45666">
        <ele>329.87</ele>
        <time>2021-07-23T13:47:43Z</time>
      </trkpt>
      <trkpt lat="49.18292" lon="5.45666">
        <ele>329.87</ele>
        <time>2021-07-23T13:47:44Z</time>
      </trkpt>
      <trkpt lat="49.18292" lon="5.45666">
        <ele>329.87</ele>
        <time>2021-07-23T13:47:45Z</time>
      </trkpt>
      <trkpt lat="49.18298" lon="5.45672">
        <ele>330.35</ele>
        <time>2021-07-23T13:47:46Z</time>
      </trkpt>
      <trkpt lat="49.1831" lon="5.45685">
        <ele>330.35</ele>
        <time>2021-07-23T13:47:47Z</time>
      </trkpt>
      <trkpt lat="49.1839" lon="5.45773">
        <ele>330.83</ele>
        <time>2021-07-23T13:47:59Z</time>
      </trkpt>
      <trkpt lat="49.18425" lon="5.45811">
        <ele>330.83</ele>
        <time>2021-07-23T13:48:04Z</time>
      </trkpt>
      <trkpt lat="49.18427" lon="5.45814">
        <ele>330.83</ele>
        <time>2021-07-23T13:48:05Z</time>
      </trkpt>
      <trkpt lat="49.18424" lon="5.4582">
        <ele>331.79</ele>
        <time>2021-07-23T13:48:14Z</time>
      </trkpt>
      <trkpt lat="49.1843" lon="5.45823">
        <ele>332.75</ele>
        <time>2021-07-23T13:48:21Z</time>
      </trkpt>
      <trkpt lat="49.18455" lon="5.45845">
        <ele>336.12</ele>
        <time>2021-07-23T13:48:33Z</time>
      </trkpt>
      <trkpt lat="49.18498" lon="5.45891">
        <ele>335.16</ele>
        <time>2021-07-23T13:48:41Z</time>
      </trkpt>
      <trkpt lat="49.18595" lon="5.45997">
        <ele>334.68</ele>
        <time>2021-07-23T13:48:51Z</time>
      </trkpt>
      <trkpt lat="49.18701" lon="5.46112">
        <ele>324.58</ele>
        <time>2021-07-23T13:49:03Z</time>
      </trkpt>
      <trkpt lat="49.18708" lon="5.4612">
        <ele>324.58</ele>
        <time>2021-07-23T13:49:04Z</time>
      </trkpt>
      <trkpt lat="49.18717" lon="5.46127">
        <ele>323.62</ele>
        <time>2021-07-23T13:49:05Z</time>
      </trkpt>
      <trkpt lat="49.18724" lon="5.46132">
        <ele>322.66</ele>
        <time>2021-07-23T13:49:06Z</time>
      </trkpt>
      <trkpt lat="49.18732" lon="5.46133">
        <ele>321.7</ele>
        <time>2021-07-23T13:49:07Z</time>
      </trkpt>
      <trkpt lat="49.18739" lon="5.46133">
        <ele>320.26</ele>
        <time>2021-07-23T13:49:08Z</time>
      </trkpt>
      <trkpt lat="49.18747" lon="5.46134">
        <ele>320.26</ele>
        <time>2021-07-23T13:49:09Z</time>
      </trkpt>
      <trkpt lat="49.18753" lon="5.46133">
        <ele>320.74</ele>
        <time>2021-07-23T13:49:10Z</time>
      </trkpt>
      <trkpt lat="49.18769" lon="5.4612">
        <ele>321.22</ele>
        <time>2021-07-23T13:49:11Z</time>
      </trkpt>
      <trkpt lat="49.18769" lon="5.4612">
        <ele>321.7</ele>
        <time>2021-07-23T13:49:12Z</time>
      </trkpt>
      <trkpt lat="49.18781" lon="5.461">
        <ele>321.7</ele>
        <time>2021-07-23T13:49:13Z</time>
      </trkpt>
      <trkpt lat="49.18781" lon="5.461">
        <ele>320.74</ele>
        <time>2021-07-23T13:49:14Z</time>
      </trkpt>
      <trkpt lat="49.18785" lon="5.4609">
        <ele>320.74</ele>
        <time>2021-07-23T13:49:15Z</time>
      </trkpt>
      <trkpt lat="49.18807" lon="5.46019">
        <ele>321.22</ele>
        <time>2021-07-23T13:49:22Z</time>
      </trkpt>
      <trkpt lat="49.18807" lon="5.46019">
        <ele>321.7</ele>
        <time>2021-07-23T13:49:23Z</time>
      </trkpt>
      <trkpt lat="49.18835" lon="5.45927">
        <ele>323.14</ele>
        <time>2021-07-23T13:49:32Z</time>
      </trkpt>
      <trkpt lat="49.18864" lon="5.45835">
        <ele>322.66</ele>
        <time>2021-07-23T13:49:40Z</time>
      </trkpt>
      <trkpt lat="49.18866" lon="5.45828">
        <ele>322.66</ele>
        <time>2021-07-23T13:49:41Z</time>
      </trkpt>
      <trkpt lat="49.18868" lon="5.45821">
        <ele>322.66</ele>
        <time>2021-07-23T13:49:42Z</time>
      </trkpt>
      <trkpt lat="49.18871" lon="5.45816">
        <ele>322.18</ele>
        <time>2021-07-23T13:49:43Z</time>
      </trkpt>
      <trkpt lat="49.18874" lon="5.45813">
        <ele>322.18</ele>
        <time>2021-07-23T13:49:44Z</time>
      </trkpt>
      <trkpt lat="49.18877" lon="5.4581">
        <ele>321.7</ele>
        <time>2021-07-23T13:49:45Z</time>
      </trkpt>
      <trkpt lat="49.18882" lon="5.45806">
        <ele>321.7</ele>
        <time>2021-07-23T13:49:46Z</time>
      </trkpt>
      <trkpt lat="49.18887" lon="5.45807">
        <ele>321.22</ele>
        <time>2021-07-23T13:49:47Z</time>
      </trkpt>
      <trkpt lat="49.18892" lon="5.45807">
        <ele>321.22</ele>
        <time>2021-07-23T13:49:48Z</time>
      </trkpt>
      <trkpt lat="49.18899" lon="5.45808">
        <ele>321.22</ele>
        <time>2021-07-23T13:49:49Z</time>
      </trkpt>
      <trkpt lat="49.18907" lon="5.45816">
        <ele>320.74</ele>
        <time>2021-07-23T13:49:50Z</time>
      </trkpt>
      <trkpt lat="49.18918" lon="5.45838">
        <ele>320.26</ele>
        <time>2021-07-23T13:49:51Z</time>
      </trkpt>
      <trkpt lat="49.18918" lon="5.45838">
        <ele>320.26</ele>
        <time>2021-07-23T13:49:52Z</time>
      </trkpt>
      <trkpt lat="49.18921" lon="5.45851">
        <ele>320.26</ele>
        <time>2021-07-23T13:49:53Z</time>
      </trkpt>
      <trkpt lat="49.18923" lon="5.45864">
        <ele>319.78</ele>
        <time>2021-07-23T13:49:54Z</time>
      </trkpt>
      <trkpt lat="49.18939" lon="5.45957">
        <ele>319.3</ele>
        <time>2021-07-23T13:50:03Z</time>
      </trkpt>
      <trkpt lat="49.18967" lon="5.46119">
        <ele>323.14</ele>
        <time>2021-07-23T13:50:14Z</time>
      </trkpt>
      <trkpt lat="49.19006" lon="5.46288">
        <ele>333.71</ele>
        <time>2021-07-23T13:50:26Z</time>
      </trkpt>
      <trkpt lat="49.19011" lon="5.463">
        <ele>337.56</ele>
        <time>2021-07-23T13:50:32Z</time>
      </trkpt>
      <trkpt lat="49.19028" lon="5.46322">
        <ele>338.52</ele>
        <time>2021-07-23T13:50:47Z</time>
      </trkpt>
      <trkpt lat="49.19036" lon="5.46331">
        <ele>339</ele>
        <time>2021-07-23T13:50:49Z</time>
      </trkpt>
      <trkpt lat="49.19043" lon="5.46334">
        <ele>339</ele>
        <time>2021-07-23T13:50:50Z</time>
      </trkpt>
      <trkpt lat="49.19049" lon="5.46337">
        <ele>339.48</ele>
        <time>2021-07-23T13:50:51Z</time>
      </trkpt>
      <trkpt lat="49.19149" lon="5.4635">
        <ele>345.25</ele>
        <time>2021-07-23T13:51:02Z</time>
      </trkpt>
      <trkpt lat="49.19283" lon="5.46363">
        <ele>349.1</ele>
        <time>2021-07-23T13:51:14Z</time>
      </trkpt>
      <trkpt lat="49.19455" lon="5.46378">
        <ele>344.77</ele>
        <time>2021-07-23T13:51:28Z</time>
      </trkpt>
      <trkpt lat="49.19537" lon="5.46394">
        <ele>345.25</ele>
        <time>2021-07-23T13:51:35Z</time>
      </trkpt>
      <trkpt lat="49.19546" lon="5.46396">
        <ele>345.25</ele>
        <time>2021-07-23T13:51:36Z</time>
      </trkpt>
      <trkpt lat="49.19554" lon="5.46405">
        <ele>345.73</ele>
        <time>2021-07-23T13:51:37Z</time>
      </trkpt>
      <trkpt lat="49.19563" lon="5.46417">
        <ele>346.21</ele>
        <time>2021-07-23T13:51:38Z</time>
      </trkpt>
      <trkpt lat="49.19572" lon="5.46428">
        <ele>346.21</ele>
        <time>2021-07-23T13:51:39Z</time>
      </trkpt>
      <trkpt lat="49.19708" lon="5.46625">
        <ele>343.81</ele>
        <time>2021-07-23T13:51:52Z</time>
      </trkpt>
      <trkpt lat="49.19788" lon="5.46741">
        <ele>341.41</ele>
        <time>2021-07-23T13:52:02Z</time>
      </trkpt>
      <trkpt lat="49.19926" lon="5.46909">
        <ele>339.96</ele>
        <time>2021-07-23T13:52:18Z</time>
      </trkpt>
      <trkpt lat="49.19945" lon="5.46931">
        <ele>339.48</ele>
        <time>2021-07-23T13:52:24Z</time>
      </trkpt>
      <trkpt lat="49.19955" lon="5.47005">
        <ele>339.96</ele>
        <time>2021-07-23T13:52:36Z</time>
      </trkpt>
      <trkpt lat="49.19959" lon="5.47018">
        <ele>340.44</ele>
        <time>2021-07-23T13:52:38Z</time>
      </trkpt>
      <trkpt lat="49.19968" lon="5.47039">
        <ele>340.44</ele>
        <time>2021-07-23T13:52:46Z</time>
      </trkpt>
      <trkpt lat="49.19974" lon="5.47048">
        <ele>340.44</ele>
        <time>2021-07-23T13:52:55Z</time>
      </trkpt>
      <trkpt lat="49.19975" lon="5.47054">
        <ele>340.44</ele>
        <time>2021-07-23T13:53:19Z</time>
      </trkpt>
      <trkpt lat="49.19961" lon="5.47061">
        <ele>339.96</ele>
        <time>2021-07-23T13:53:29Z</time>
      </trkpt>
      <trkpt lat="49.19963" lon="5.4706">
        <ele>339.96</ele>
        <time>2021-07-23T13:53:47Z</time>
      </trkpt>
      <trkpt lat="49.19965" lon="5.47063">
        <ele>339.96</ele>
        <time>2021-07-23T13:54:03Z</time>
      </trkpt>
      <trkpt lat="49.19967" lon="5.47069">
        <ele>339.48</ele>
        <time>2021-07-23T13:54:29Z</time>
      </trkpt>
    </trkseg>
  </trk>
</gpx>